Gilze-Rijen, Netherlands
Current Conditions -  °F | °C
As of 9:15 AM on Thursday 29 Jan 2015 (Local Time) from EHGR Reporting Station
Broken Clouds Broken Clouds  
Wind Chill: 26°   Ceiling: 9100
Heat Index: 36°   Visibility: 6mi
Dew Point: 34°   Wind: 15mph
Humidity: 93%   Direction: 220°SW
Pressure: 29.21"   Gusts: NA
Location:  51.59°N, 4.92°E
Report Text: EHGR 290815Z AUTO 22013KT 9999 FEW009 SCT028 BKN091 02/01 Q0989 REDZ BLU 22012G22KT 9999 FEW025 SCT040 TEMPO 4000 SHRASN FEW010 SCT020CB BKN030
Loading
Personal Weather Stations






























Interactive Weather Map New forecast layout! Learn more

10-Day Weather Forecast

Advertisements
Track Severe Weather on mobile